Time;durP1;ratioP1;P1;durP2;ratioP2;P2;SDS_P1;SDS_P2;PMS_P1;PMS_P2;Temp;Humidity;BMP_temperature;BMP_pressure;BME280_temperature;BME280_humidity;BME280_pressure;Samples;Min_cycle;Max_cycle;Signal;HPM_P1;HPM_P2
2021/01/22 00:02:19;;;;;;;5.97;0.80;;;;;;;;;;4991560;28;20117;-55
2021/01/22 00:04:45;;;;;;;4.70;0.90;;;;;;;;;;4995153;28;20141;-56
2021/01/22 00:07:11;;;;;;;10.07;2.20;;;;;;;;;;4994412;28;20064;-57
2021/01/22 00:09:37;;;;;;;6.93;0.93;;;;;;;;;;4992601;28;20046;-57
2021/01/22 00:12:04;;;;;;;5.00;0.90;;;;;;;;;;4994279;28;20461;-55
2021/01/22 00:14:29;;;;;;;2.72;0.80;;;;;;;;;;4995499;28;20042;-55
2021/01/22 00:16:55;;;;;;;4.75;0.90;;;;;;;;;;4995411;28;20881;-57
2021/01/22 00:19:22;;;;;;;2.60;0.85;;;;;;;;;;4993656;28;20053;-54
2021/01/22 00:21:48;;;;;;;4.93;1.27;;;;;;;;;;4995885;28;20601;-57
2021/01/22 00:24:13;;;;;;;6.88;1.13;;;;;;;;;;4996125;28;20028;-54
2021/01/22 00:26:40;;;;;;;7.15;1.08;;;;;;;;;;4994134;28;20510;-55
2021/01/22 00:29:05;;;;;;;7.53;1.20;;;;;;;;;;4995857;28;20558;-54
2021/01/22 00:31:31;;;;;;;7.40;1.45;;;;;;;;;;4994534;28;20041;-56
2021/01/22 00:33:57;;;;;;;8.35;1.88;;;;;;;;;;4995443;28;20046;-55
2021/01/22 00:36:23;;;;;;;5.90;1.25;;;;;;;;;;4978017;28;20041;-56
2021/01/22 00:38:49;;;;;;;4.75;1.50;;;;;;;;;;4996793;28;20136;-55
2021/01/22 00:41:15;;;;;;;5.85;1.67;;;;;;;;;;4995231;28;20415;-56
2021/01/22 00:43:41;;;;;;;12.57;2.50;;;;;;;;;;4995536;28;20038;-56
2021/01/22 00:46:07;;;;;;;9.75;2.10;;;;;;;;;;4995392;28;20069;-56
2021/01/22 00:48:33;;;;;;;5.20;1.83;;;;;;;;;;4994250;28;20181;-55
2021/01/22 00:50:59;;;;;;;9.70;1.50;;;;;;;;;;4979235;28;20080;-53
2021/01/22 00:53:24;;;;;;;12.60;1.90;;;;;;;;;;4992874;28;20057;-55
2021/01/22 00:55:50;;;;;;;9.63;2.17;;;;;;;;;;4979853;28;20091;-54
2021/01/22 00:58:16;;;;;;;6.30;1.75;;;;;;;;;;4993838;28;20107;-54
2021/01/22 01:00:42;;;;;;;12.88;1.85;;;;;;;;;;4994632;28;20042;-53
2021/01/22 01:03:08;;;;;;;11.23;1.65;;;;;;;;;;4994066;28;20050;-53
2021/01/22 01:05:34;;;;;;;10.32;1.90;;;;;;;;;;4995324;28;20034;-55
2021/01/22 01:08:00;;;;;;;11.13;2.08;;;;;;;;;;4996100;28;20507;-54
2021/01/22 01:10:26;;;;;;;10.40;2.08;;;;;;;;;;4993540;28;20042;-56
2021/01/22 01:12:52;;;;;;;10.15;2.05;;;;;;;;;;4993293;28;20037;-56
2021/01/22 01:15:17;;;;;;;11.68;1.77;;;;;;;;;;4994048;28;20144;-55
2021/01/22 01:17:43;;;;;;;11.30;1.63;;;;;;;;;;4993636;28;20040;-55
2021/01/22 01:20:13;;;;;;;7.90;2.00;;;;;;;;;;4992677;28;20050;-57
2021/01/22 01:22:39;;;;;;;12.88;3.17;;;;;;;;;;4993609;28;20042;-56
2021/01/22 01:25:05;;;;;;;21.98;1.85;;;;;;;;;;4993354;28;20045;-56
2021/01/22 01:27:31;;;;;;;15.52;2.78;;;;;;;;;;4993121;28;20071;-55
2021/01/22 01:29:57;;;;;;;18.38;1.60;;;;;;;;;;4993324;28;20038;-56
2021/01/22 01:32:23;;;;;;;14.15;2.10;;;;;;;;;;4993339;28;20034;-55
2021/01/22 01:34:49;;;;;;;11.20;2.00;;;;;;;;;;4992095;28;20058;-56
2021/01/22 01:37:15;;;;;;;13.93;2.58;;;;;;;;;;4992411;28;20772;-57
2021/01/22 01:39:43;;;;;;;14.68;2.72;;;;;;;;;;4993648;28;20107;-57
2021/01/22 01:42:09;;;;;;;15.68;2.33;;;;;;;;;;4994408;28;20231;-53
2021/01/22 01:44:35;;;;;;;11.32;2.53;;;;;;;;;;4993592;28;20052;-54
2021/01/22 01:47:02;;;;;;;11.07;2.33;;;;;;;;;;4994771;28;20058;-54
2021/01/22 01:49:27;;;;;;;8.30;1.92;;;;;;;;;;4991217;28;21964;-54
2021/01/22 01:51:53;;;;;;;12.02;2.10;;;;;;;;;;4993072;28;20045;-57
2021/01/22 01:54:20;;;;;;;11.85;2.17;;;;;;;;;;4992738;28;20049;-53
2021/01/22 01:56:46;;;;;;;17.15;2.30;;;;;;;;;;4991092;28;21029;-56
2021/01/22 01:59:12;;;;;;;8.48;2.05;;;;;;;;;;4992021;28;20129;-56
2021/01/22 02:01:39;;;;;;;8.30;1.55;;;;;;;;;;4991347;28;20089;-55
2021/01/22 02:04:05;;;;;;;12.13;1.80;;;;;;;;;;4993851;28;20045;-52
2021/01/22 02:06:31;;;;;;;12.00;1.85;;;;;;;;;;4978245;28;20065;-55
2021/01/22 02:08:57;;;;;;;7.30;1.65;;;;;;;;;;4994461;28;20483;-53
2021/01/22 02:11:24;;;;;;;7.15;2.05;;;;;;;;;;4993059;28;20635;-55
2021/01/22 02:13:51;;;;;;;8.15;1.65;;;;;;;;;;4991780;28;20048;-53
2021/01/22 02:16:17;;;;;;;6.03;1.67;;;;;;;;;;4992072;28;20750;-55
2021/01/22 02:18:44;;;;;;;10.13;1.80;;;;;;;;;;4991311;28;20050;-53
2021/01/22 02:21:13;;;;;;;12.27;1.80;;;;;;;;;;4992212;28;20173;-55
2021/01/22 02:23:42;;;;;;;7.22;1.80;;;;;;;;;;4994386;28;20049;-52
2021/01/22 02:26:18;;;;;;;5.57;1.73;;;;;;;;;;4991154;28;20511;-53
2021/01/22 02:28:45;;;;;;;6.50;1.63;;;;;;;;;;4992042;28;20088;-55
2021/01/22 02:31:14;;;;;;;4.97;1.35;;;;;;;;;;4993480;28;20468;-55
2021/01/22 02:33:40;;;;;;;7.38;1.50;;;;;;;;;;4978748;28;20053;-56
2021/01/22 02:36:06;;;;;;;10.93;2.05;;;;;;;;;;4993162;28;20052;-56
2021/01/22 02:38:33;;;;;;;7.65;1.95;;;;;;;;;;4989972;28;20208;-55
2021/01/22 02:40:59;;;;;;;10.52;1.65;;;;;;;;;;4992061;28;20092;-53
2021/01/22 02:43:26;;;;;;;6.55;1.70;;;;;;;;;;4990857;28;20050;-56
2021/01/22 02:45:52;;;;;;;6.40;1.52;;;;;;;;;;4992363;28;20100;-55
2021/01/22 02:48:18;;;;;;;8.73;1.70;;;;;;;;;;4992240;28;20108;-54
2021/01/22 02:50:47;;;;;;;9.55;1.52;;;;;;;;;;4993411;28;20045;-55
2021/01/22 02:53:13;;;;;;;7.35;1.38;;;;;;;;;;4992982;28;20042;-53
2021/01/22 02:55:39;;;;;;;5.85;1.60;;;;;;;;;;4991928;28;20053;-54
2021/01/22 02:58:23;;;;;;;6.65;1.35;;;;;;;;;;4991046;28;20046;-55
2021/01/22 03:00:52;;;;;;;4.90;1.25;;;;;;;;;;4992684;28;20037;-53
2021/01/22 03:03:27;;;;;;;7.30;1.52;;;;;;;;;;4993017;28;20644;-53
2021/01/22 03:05:56;;;;;;;3.90;1.10;;;;;;;;;;4993982;28;20046;-56
2021/01/22 03:08:22;;;;;;;9.02;1.38;;;;;;;;;;4989652;28;20506;-53
2021/01/22 03:10:50;;;;;;;6.28;1.20;;;;;;;;;;4993860;28;20070;-56
2021/01/22 03:13:16;;;;;;;6.20;1.52;;;;;;;;;;4991889;28;20029;-56
2021/01/22 03:15:42;;;;;;;7.20;1.42;;;;;;;;;;4974638;28;20049;-56
2021/01/22 03:18:26;;;;;;;3.53;1.15;;;;;;;;;;4985846;28;20095;-53
2021/01/22 03:20:52;;;;;;;6.38;1.40;;;;;;;;;;4992711;28;20040;-53
2021/01/22 03:23:19;;;;;;;4.70;1.30;;;;;;;;;;4993714;28;20045;-52
2021/01/22 03:25:45;;;;;;;4.32;1.33;;;;;;;;;;4992262;28;20046;-56
2021/01/22 03:28:11;;;;;;;9.82;1.40;;;;;;;;;;4990849;28;20038;-55
2021/01/22 03:30:37;;;;;;;5.40;1.73;;;;;;;;;;4990770;28;20066;-56
2021/01/22 03:33:04;;;;;;;7.78;1.25;;;;;;;;;;4992757;28;20042;-56
2021/01/22 03:35:30;;;;;;;6.78;1.55;;;;;;;;;;4990946;28;20468;-56
2021/01/22 03:37:56;;;;;;;5.30;1.50;;;;;;;;;;4990306;28;20061;-55
2021/01/22 03:40:23;;;;;;;8.95;1.50;;;;;;;;;;4991668;28;20133;-54
2021/01/22 03:42:49;;;;;;;6.85;1.40;;;;;;;;;;4992193;28;20489;-56
2021/01/22 03:45:15;;;;;;;5.50;1.77;;;;;;;;;;4975526;28;20037;-56
2021/01/22 03:47:41;;;;;;;8.07;1.58;;;;;;;;;;4990736;28;20590;-54
2021/01/22 03:50:08;;;;;;;4.53;1.40;;;;;;;;;;4991759;28;20042;-56
2021/01/22 03:52:34;;;;;;;6.10;1.40;;;;;;;;;;4992554;28;20042;-56
2021/01/22 03:55:00;;;;;;;5.88;1.17;;;;;;;;;;4976433;28;20052;-56
2021/01/22 03:57:26;;;;;;;10.38;1.38;;;;;;;;;;4991935;28;20102;-55
2021/01/22 03:59:51;;;;;;;7.78;1.58;;;;;;;;;;4990518;28;20042;-55
2021/01/22 04:02:17;;;;;;;6.75;1.10;;;;;;;;;;4990160;28;20034;-56
2021/01/22 04:04:46;;;;;;;6.43;1.10;;;;;;;;;;4990462;28;20038;-56
2021/01/22 04:07:12;;;;;;;10.48;1.30;;;;;;;;;;4992604;28;20054;-55
2021/01/22 04:09:38;;;;;;;3.78;1.20;;;;;;;;;;4990981;28;20049;-53
2021/01/22 04:12:04;;;;;;;8.05;1.70;;;;;;;;;;4992581;28;20037;-55
2021/01/22 04:14:30;;;;;;;9.98;1.75;;;;;;;;;;4989398;28;20495;-53
2021/01/22 04:16:57;;;;;;;13.50;1.52;;;;;;;;;;4992654;28;20038;-56
2021/01/22 04:19:23;;;;;;;8.55;2.22;;;;;;;;;;4992297;28;20125;-56
2021/01/22 04:21:49;;;;;;;7.55;1.80;;;;;;;;;;4991961;28;20602;-54
2021/01/22 04:24:15;;;;;;;7.32;1.50;;;;;;;;;;4992811;28;20145;-56
2021/01/22 04:26:41;;;;;;;5.05;1.10;;;;;;;;;;4994986;28;20125;-56
2021/01/22 04:29:10;;;;;;;5.43;1.25;;;;;;;;;;4993706;28;20046;-55
2021/01/22 04:31:36;;;;;;;4.53;1.30;;;;;;;;;;4994255;28;20537;-55
2021/01/22 04:34:01;;;;;;;6.97;1.38;;;;;;;;;;4994845;28;20045;-55
2021/01/22 04:36:27;;;;;;;4.85;1.20;;;;;;;;;;4990499;28;20275;-57
2021/01/22 04:38:53;;;;;;;6.90;1.40;;;;;;;;;;4994172;28;20124;-57
2021/01/22 04:41:19;;;;;;;9.63;1.70;;;;;;;;;;4990892;28;20045;-56
2021/01/22 04:43:45;;;;;;;7.07;1.60;;;;;;;;;;4989527;28;20034;-54
2021/01/22 04:46:12;;;;;;;6.93;1.40;;;;;;;;;;4988027;28;20107;-56
2021/01/22 04:48:38;;;;;;;6.93;1.65;;;;;;;;;;4988939;28;20733;-56
2021/01/22 04:51:05;;;;;;;10.55;2.42;;;;;;;;;;4991427;28;20038;-53
2021/01/22 04:53:31;;;;;;;9.30;1.92;;;;;;;;;;4994635;28;20616;-55
2021/01/22 04:55:58;;;;;;;7.55;1.50;;;;;;;;;;4993763;28;20478;-55
2021/01/22 04:58:25;;;;;;;9.48;1.70;;;;;;;;;;4990146;28;20042;-55
2021/01/22 05:00:52;;;;;;;9.02;1.60;;;;;;;;;;4992485;28;20129;-56
2021/01/22 05:03:18;;;;;;;10.40;1.40;;;;;;;;;;4991982;28;20041;-56
2021/01/22 05:05:44;;;;;;;6.00;1.63;;;;;;;;;;4991397;28;20415;-54
2021/01/22 05:08:10;;;;;;;6.07;1.50;;;;;;;;;;4973719;28;20470;-53
2021/01/22 05:10:36;;;;;;;4.43;1.30;;;;;;;;;;4991395;28;20042;-55
2021/01/22 05:13:02;;;;;;;6.82;1.45;;;;;;;;;;4992463;28;20091;-55
2021/01/22 05:15:28;;;;;;;5.03;1.30;;;;;;;;;;4990288;28;20065;-56
2021/01/22 05:17:54;;;;;;;5.47;1.33;;;;;;;;;;4991760;28;20502;-55
2021/01/22 05:20:32;;;;;;;5.85;1.50;;;;;;;;;;4992494;28;20054;-53
2021/01/22 05:22:58;;;;;;;8.18;1.13;;;;;;;;;;4991914;28;20125;-54
2021/01/22 05:25:24;;;;;;;5.03;1.20;;;;;;;;;;4991815;28;21721;-55
2021/01/22 05:27:54;;;;;;;4.80;1.05;;;;;;;;;;4975408;28;20328;-56
2021/01/22 05:30:21;;;;;;;5.07;1.20;;;;;;;;;;4991375;28;20039;-55
2021/01/22 05:32:47;;;;;;;3.03;0.95;;;;;;;;;;4990934;28;20125;-53
2021/01/22 05:35:26;;;;;;;5.55;1.00;;;;;;;;;;4993287;28;20105;-54
2021/01/22 05:37:52;;;;;;;4.28;1.27;;;;;;;;;;4989593;28;20053;-56
2021/01/22 05:40:18;;;;;;;9.32;1.23;;;;;;;;;;4990379;28;20034;-55
2021/01/22 05:42:47;;;;;;;4.90;1.00;;;;;;;;;;4992264;28;20042;-56
2021/01/22 05:45:14;;;;;;;3.53;1.10;;;;;;;;;;4994488;28;20041;-56
2021/01/22 05:47:40;;;;;;;6.65;1.17;;;;;;;;;;4992662;28;20042;-56
2021/01/22 05:50:07;;;;;;;5.93;0.90;;;;;;;;;;4990795;28;20030;-52
2021/01/22 05:52:33;;;;;;;4.88;1.02;;;;;;;;;;4990368;28;20065;-54
2021/01/22 05:55:00;;;;;;;4.50;0.90;;;;;;;;;;4991050;28;20966;-56
2021/01/22 05:57:37;;;;;;;5.28;1.20;;;;;;;;;;4990195;28;20056;-57
2021/01/22 06:00:10;;;;;;;11.13;1.40;;;;;;;;;;4990127;28;20049;-53
2021/01/22 06:02:36;;;;;;;4.38;0.95;;;;;;;;;;4989849;28;20193;-54
2021/01/22 06:05:09;;;;;;;7.20;1.15;;;;;;;;;;4991603;28;20414;-52
2021/01/22 06:07:36;;;;;;;6.32;1.13;;;;;;;;;;4990565;28;20117;-53
2021/01/22 06:10:24;;;;;;;4.47;1.05;;;;;;;;;;4991786;28;20046;-56
2021/01/22 06:12:51;;;;;;;6.28;0.80;;;;;;;;;;4991178;28;20046;-52
2021/01/22 06:15:18;;;;;;;3.80;1.05;;;;;;;;;;4992076;28;20673;-55
2021/01/22 06:17:47;;;;;;;7.70;1.33;;;;;;;;;;4990123;28;20102;-55
2021/01/22 06:20:17;;;;;;;7.90;1.23;;;;;;;;;;4991580;28;20038;-53
2021/01/22 06:22:46;;;;;;;4.70;1.08;;;;;;;;;;4993359;28;20049;-53
2021/01/22 06:25:12;;;;;;;4.38;0.77;;;;;;;;;;4993560;28;20041;-54
2021/01/22 06:27:39;;;;;;;5.97;1.20;;;;;;;;;;4992514;28;20058;-55
2021/01/22 06:30:06;;;;;;;4.70;1.10;;;;;;;;;;4992974;28;20041;-56
2021/01/22 06:32:32;;;;;;;2.80;0.80;;;;;;;;;;4993652;28;20061;-56
2021/01/22 06:34:59;;;;;;;4.03;1.00;;;;;;;;;;4995394;28;20054;-56
2021/01/22 06:37:24;;;;;;;7.05;0.90;;;;;;;;;;4992197;28;20057;-56
2021/01/22 06:39:52;;;;;;;10.00;1.02;;;;;;;;;;4992144;28;20649;-55
2021/01/22 06:42:19;;;;;;;5.75;1.30;;;;;;;;;;4992650;28;20088;-55
2021/01/22 06:44:45;;;;;;;4.07;1.02;;;;;;;;;;4993147;28;20391;-55
2021/01/22 06:47:11;;;;;;;6.60;1.00;;;;;;;;;;4994350;28;20054;-56
2021/01/22 06:49:39;;;;;;;5.78;1.30;;;;;;;;;;4992307;28;20149;-54
2021/01/22 06:52:12;;;;;;;6.38;1.27;;;;;;;;;;4994820;28;20048;-56
2021/01/22 06:54:56;;;;;;;4.22;1.02;;;;;;;;;;4992855;28;20120;-56
2021/01/22 06:57:22;;;;;;;2.53;0.70;;;;;;;;;;4991920;28;20034;-56
2021/01/22 06:59:48;;;;;;;4.53;2.10;;;;;;;;;;4990369;28;20189;-54
2021/01/22 07:02:32;;;;;;;5.35;1.08;;;;;;;;;;4993220;28;20062;-54
2021/01/22 07:04:58;;;;;;;6.13;1.00;;;;;;;;;;4990478;28;20038;-55
2021/01/22 07:07:42;;;;;;;4.55;0.90;;;;;;;;;;4991794;28;20092;-53
2021/01/22 07:10:08;;;;;;;4.47;1.10;;;;;;;;;;4992877;28;20057;-54
2021/01/22 07:12:37;;;;;;;3.95;1.10;;;;;;;;;;4990703;28;20041;-54
2021/01/22 07:15:26;;;;;;;3.92;1.00;;;;;;;;;;4993645;28;20046;-56
2021/01/22 07:17:55;;;;;;;4.38;0.98;;;;;;;;;;4985456;28;20121;-53
2021/01/22 07:20:21;;;;;;;3.85;0.80;;;;;;;;;;4991705;28;20179;-56
2021/01/22 07:22:53;;;;;;;3.55;0.90;;;;;;;;;;4991861;28;20053;-56
2021/01/22 07:25:32;;;;;;;9.63;1.13;;;;;;;;;;4992099;28;20140;-55
2021/01/22 07:28:03;;;;;;;6.75;1.10;;;;;;;;;;4993228;28;20057;-55
2021/01/22 07:30:38;;;;;;;5.55;1.17;;;;;;;;;;4977547;28;20664;-56
2021/01/22 07:33:23;;;;;;;3.90;0.98;;;;;;;;;;4992694;28;20070;-52
2021/01/22 07:35:49;;;;;;;7.40;1.15;;;;;;;;;;4992126;28;20089;-56
2021/01/22 07:38:22;;;;;;;4.75;1.02;;;;;;;;;;4992519;28;20120;-56
2021/01/22 07:40:48;;;;;;;4.53;0.90;;;;;;;;;;4991315;28;20124;-56
2021/01/22 07:43:14;;;;;;;7.30;1.00;;;;;;;;;;4991594;28;22692;-53
2021/01/22 07:45:40;;;;;;;5.53;1.08;;;;;;;;;;4992148;28;20054;-54
2021/01/22 07:48:06;;;;;;;5.63;1.63;;;;;;;;;;4991618;28;20518;-55
2021/01/22 07:50:31;;;;;;;5.57;1.00;;;;;;;;;;4992590;28;20080;-55
2021/01/22 07:52:58;;;;;;;5.60;1.23;;;;;;;;;;4991389;28;20634;-55
2021/01/22 07:55:24;;;;;;;7.85;1.25;;;;;;;;;;4990312;28;20046;-52
2021/01/22 07:58:05;;;;;;;4.28;1.17;;;;;;;;;;4991289;28;20398;-53
2021/01/22 08:00:41;;;;;;;6.25;1.13;;;;;;;;;;4990456;28;20113;-55
2021/01/22 08:03:09;;;;;;;4.75;1.27;;;;;;;;;;4992908;28;20034;-56
2021/01/22 08:05:36;;;;;;;6.70;1.00;;;;;;;;;;4991312;28;20049;-55
2021/01/22 08:08:15;;;;;;;4.80;1.10;;;;;;;;;;4993155;28;20049;-54
2021/01/22 08:10:40;;;;;;;6.03;1.40;;;;;;;;;;4991098;28;20872;-54
2021/01/22 08:13:06;;;;;;;5.10;1.10;;;;;;;;;;4991554;28;20152;-54
2021/01/22 08:15:32;;;;;;;3.45;0.90;;;;;;;;;;4991941;28;20034;-56
2021/01/22 08:17:58;;;;;;;7.13;1.17;;;;;;;;;;4990848;28;20042;-55
2021/01/22 08:20:24;;;;;;;7.82;1.30;;;;;;;;;;4987683;28;20037;-54
2021/01/22 08:22:57;;;;;;;6.22;1.25;;;;;;;;;;4993248;28;20052;-56
2021/01/22 08:25:36;;;;;;;5.35;1.10;;;;;;;;;;4995338;28;20069;-55
2021/01/22 08:28:03;;;;;;;9.48;1.65;;;;;;;;;;4996407;28;20050;-54
2021/01/22 08:30:29;;;;;;;4.28;1.33;;;;;;;;;;4994477;28;20034;-52
2021/01/22 08:32:56;;;;;;;8.98;1.75;;;;;;;;;;4995391;28;20109;-55
2021/01/22 08:35:23;;;;;;;6.57;1.50;;;;;;;;;;4994429;28;20523;-54
2021/01/22 08:37:50;;;;;;;6.20;1.40;;;;;;;;;;4994235;28;20093;-53
2021/01/22 08:40:16;;;;;;;6.75;1.50;;;;;;;;;;4994074;28;20534;-56
2021/01/22 08:42:56;;;;;;;7.55;1.90;;;;;;;;;;4995167;28;20050;-56
2021/01/22 08:45:22;;;;;;;6.55;1.60;;;;;;;;;;4994726;28;20077;-56
2021/01/22 08:47:48;;;;;;;3.92;1.30;;;;;;;;;;4994432;28;20053;-53
2021/01/22 08:50:16;;;;;;;7.30;1.40;;;;;;;;;;4994521;28;20539;-56
2021/01/22 08:52:42;;;;;;;6.57;1.45;;;;;;;;;;4993409;28;20042;-53
2021/01/22 08:55:18;;;;;;;12.18;2.35;;;;;;;;;;4994855;28;20037;-56
2021/01/22 08:57:58;;;;;;;8.25;1.90;;;;;;;;;;4992825;28;20551;-56
2021/01/22 09:00:24;;;;;;;8.05;1.70;;;;;;;;;;4994772;28;20184;-55
2021/01/22 09:02:50;;;;;;;8.35;1.70;;;;;;;;;;4995174;28;20855;-52
2021/01/22 09:05:16;;;;;;;9.18;2.28;;;;;;;;;;4996108;28;20038;-53
2021/01/22 09:07:42;;;;;;;5.75;1.33;;;;;;;;;;4992718;28;20408;-55
2021/01/22 09:10:23;;;;;;;6.05;2.05;;;;;;;;;;4994745;28;20034;-55
2021/01/22 09:12:49;;;;;;;5.88;1.52;;;;;;;;;;4993407;28;20033;-55
2021/01/22 09:15:16;;;;;;;8.50;1.35;;;;;;;;;;4993202;28;22027;-54
2021/01/22 09:17:45;;;;;;;7.00;1.42;;;;;;;;;;4993997;28;20037;-52
2021/01/22 09:20:15;;;;;;;6.68;1.30;;;;;;;;;;4995287;28;20048;-54
2021/01/22 09:22:43;;;;;;;6.97;1.77;;;;;;;;;;4993528;28;20038;-52
2021/01/22 09:25:10;;;;;;;7.97;1.70;;;;;;;;;;4995161;28;20109;-52
2021/01/22 09:27:37;;;;;;;8.00;1.40;;;;;;;;;;4991989;28;20057;-56
2021/01/22 09:30:04;;;;;;;7.85;1.73;;;;;;;;;;4995524;28;20038;-55
2021/01/22 09:32:30;;;;;;;8.18;1.80;;;;;;;;;;4993504;28;20084;-55
2021/01/22 09:34:56;;;;;;;5.90;1.65;;;;;;;;;;4993757;28;20467;-56
2021/01/22 09:37:22;;;;;;;7.50;1.92;;;;;;;;;;4993418;28;21221;-56
2021/01/22 09:39:48;;;;;;;9.90;2.08;;;;;;;;;;4993653;28;20099;-57
2021/01/22 09:42:15;;;;;;;7.22;2.20;;;;;;;;;;4995881;28;20053;-56
2021/01/22 09:44:41;;;;;;;9.48;1.60;;;;;;;;;;4993615;28;20038;-56
2021/01/22 09:47:07;;;;;;;13.15;1.75;;;;;;;;;;4994648;28;20065;-54
2021/01/22 09:49:33;;;;;;;10.70;2.17;;;;;;;;;;4992412;28;20049;-57
2021/01/22 09:51:59;;;;;;;11.05;2.17;;;;;;;;;;4993995;28;20084;-55
2021/01/22 09:54:24;;;;;;;6.63;1.55;;;;;;;;;;4991974;28;20113;-56
2021/01/22 09:56:50;;;;;;;9.98;1.83;;;;;;;;;;4995241;28;20120;-56
2021/01/22 09:59:16;;;;;;;7.38;1.40;;;;;;;;;;4975886;28;20037;-56
2021/01/22 10:01:42;;;;;;;9.90;1.90;;;;;;;;;;4993381;28;20046;-54
2021/01/22 10:04:08;;;;;;;6.70;1.70;;;;;;;;;;4995591;28;20432;-56
2021/01/22 10:06:34;;;;;;;7.75;2.08;;;;;;;;;;4994084;28;20057;-56
2021/01/22 10:09:00;;;;;;;11.05;1.77;;;;;;;;;;4992603;28;20173;-56
2021/01/22 10:11:26;;;;;;;9.88;1.65;;;;;;;;;;4991453;28;20046;-56
2021/01/22 10:13:59;;;;;;;8.27;1.60;;;;;;;;;;4991896;28;20245;-57
2021/01/22 10:16:25;;;;;;;7.82;1.80;;;;;;;;;;4993895;28;20172;-57
2021/01/22 10:18:52;;;;;;;8.57;1.42;;;;;;;;;;4992349;28;20041;-55
2021/01/22 10:21:18;;;;;;;12.25;1.77;;;;;;;;;;4992760;28;20634;-53
2021/01/22 10:23:44;;;;;;;7.63;1.42;;;;;;;;;;4990997;28;20048;-53
2021/01/22 10:26:10;;;;;;;7.95;1.77;;;;;;;;;;4992555;28;20180;-54
2021/01/22 10:28:36;;;;;;;6.65;1.40;;;;;;;;;;4992094;28;20044;-55
2021/01/22 10:31:02;;;;;;;6.32;1.42;;;;;;;;;;4989047;28;20050;-53
2021/01/22 10:33:28;;;;;;;6.65;1.52;;;;;;;;;;4992649;28;20045;-54
2021/01/22 10:35:54;;;;;;;7.25;1.75;;;;;;;;;;4991668;28;20521;-53
2021/01/22 10:38:20;;;;;;;10.45;1.95;;;;;;;;;;4990674;28;20045;-55
2021/01/22 10:40:45;;;;;;;9.02;1.63;;;;;;;;;;4993344;28;20069;-56
2021/01/22 10:43:11;;;;;;;12.05;2.40;;;;;;;;;;4993888;28;20034;-56
2021/01/22 10:45:37;;;;;;;13.05;2.20;;;;;;;;;;4989800;28;20399;-53
2021/01/22 10:48:03;;;;;;;11.98;2.25;;;;;;;;;;4991614;28;20578;-55
2021/01/22 10:50:29;;;;;;;7.68;1.45;;;;;;;;;;4991158;28;20056;-52
2021/01/22 10:52:55;;;;;;;11.82;1.75;;;;;;;;;;4993387;28;20504;-55
2021/01/22 10:55:21;;;;;;;8.43;1.63;;;;;;;;;;4993896;28;20046;-55
2021/01/22 10:57:47;;;;;;;10.68;1.80;;;;;;;;;;4991386;28;20092;-54
2021/01/22 11:00:13;;;;;;;8.65;1.90;;;;;;;;;;4993512;28;20042;-55
2021/01/22 11:02:38;;;;;;;9.38;1.30;;;;;;;;;;4990938;28;20943;-56
2021/01/22 11:05:05;;;;;;;8.05;1.65;;;;;;;;;;4993799;28;20125;-57
2021/01/22 11:07:31;;;;;;;10.70;2.10;;;;;;;;;;4989369;28;20085;-56
2021/01/22 11:09:56;;;;;;;7.35;1.80;;;;;;;;;;4992127;28;20156;-53
2021/01/22 11:12:22;;;;;;;9.32;1.63;;;;;;;;;;4991110;28;20061;-56
2021/01/22 11:14:48;;;;;;;14.35;2.22;;;;;;;;;;4991248;28;20092;-53
2021/01/22 11:17:14;;;;;;;12.50;2.20;;;;;;;;;;4992000;28;20444;-54
2021/01/22 11:19:40;;;;;;;8.48;1.50;;;;;;;;;;4992412;28;20034;-56
2021/01/22 11:22:06;;;;;;;12.35;2.05;;;;;;;;;;4993223;28;20048;-52
2021/01/22 11:24:34;;;;;;;8.45;1.80;;;;;;;;;;4992440;28;20038;-55
2021/01/22 11:27:00;;;;;;;12.52;1.85;;;;;;;;;;4992188;28;20420;-56
2021/01/22 11:29:26;;;;;;;8.98;1.98;;;;;;;;;;4991445;28;20133;-53
2021/01/22 11:31:51;;;;;;;10.70;2.15;;;;;;;;;;4991806;28;20038;-54
2021/01/22 11:34:17;;;;;;;12.98;2.15;;;;;;;;;;4991302;28;20117;-56
2021/01/22 11:36:43;;;;;;;9.13;2.25;;;;;;;;;;4991755;28;20057;-56
2021/01/22 11:39:09;;;;;;;12.63;1.83;;;;;;;;;;4992594;28;20041;-57
2021/01/22 11:41:35;;;;;;;13.70;2.10;;;;;;;;;;4991031;28;20042;-56
2021/01/22 11:44:01;;;;;;;7.85;1.75;;;;;;;;;;4992849;28;20055;-54
2021/01/22 11:46:27;;;;;;;11.00;2.00;;;;;;;;;;4990942;28;20046;-53
2021/01/22 11:48:53;;;;;;;13.63;1.90;;;;;;;;;;4991880;28;20107;-56
2021/01/22 11:51:19;;;;;;;12.43;2.03;;;;;;;;;;4991009;28;20094;-57
2021/01/22 11:53:45;;;;;;;11.05;1.90;;;;;;;;;;4991935;28;20763;-57
2021/01/22 11:56:11;;;;;;;12.50;2.60;;;;;;;;;;4993044;28;20181;-57
2021/01/22 11:58:37;;;;;;;11.52;2.47;;;;;;;;;;4993047;28;20061;-55
2021/01/22 12:01:03;;;;;;;17.60;2.15;;;;;;;;;;4988647;28;20044;-54
2021/01/22 12:03:29;;;;;;;17.70;1.85;;;;;;;;;;4994512;28;20054;-54
2021/01/22 12:05:54;;;;;;;12.43;1.92;;;;;;;;;;4996620;28;20056;-55
2021/01/22 12:08:22;;;;;;;14.05;2.33;;;;;;;;;;4994495;28;20204;-56
2021/01/22 12:10:48;;;;;;;14.40;1.92;;;;;;;;;;4995172;28;20575;-56
2021/01/22 12:13:14;;;;;;;11.43;1.95;;;;;;;;;;4994797;28;20069;-57
2021/01/22 12:15:39;;;;;;;10.35;2.00;;;;;;;;;;4995578;28;20157;-57
2021/01/22 12:18:05;;;;;;;12.50;2.15;;;;;;;;;;4996214;28;20038;-57
2021/01/22 12:20:31;;;;;;;8.75;1.85;;;;;;;;;;4994532;28;21991;-57
2021/01/22 12:22:57;;;;;;;14.23;1.98;;;;;;;;;;4996010;28;20415;-55
2021/01/22 12:25:23;;;;;;;20.33;2.22;;;;;;;;;;4994525;28;20057;-55
2021/01/22 12:27:49;;;;;;;12.38;1.70;;;;;;;;;;4992800;28;20568;-55
2021/01/22 12:30:15;;;;;;;6.88;1.65;;;;;;;;;;4995165;28;20046;-55
2021/01/22 12:32:41;;;;;;;16.23;2.13;;;;;;;;;;4994644;28;20054;-55
2021/01/22 12:35:07;;;;;;;12.07;1.70;;;;;;;;;;4995494;28;20050;-53
2021/01/22 12:37:33;;;;;;;11.82;1.77;;;;;;;;;;4994142;28;20049;-55
2021/01/22 12:39:59;;;;;;;12.02;2.65;;;;;;;;;;4995497;28;20042;-56
2021/01/22 12:42:24;;;;;;;15.00;2.17;;;;;;;;;;4993376;28;20418;-55
2021/01/22 12:44:50;;;;;;;8.77;1.80;;;;;;;;;;4996971;28;20045;-54
2021/01/22 12:47:16;;;;;;;11.82;2.00;;;;;;;;;;4992645;28;20088;-57
2021/01/22 12:49:42;;;;;;;12.02;1.70;;;;;;;;;;4993962;28;20030;-54
2021/01/22 12:52:08;;;;;;;15.85;2.17;;;;;;;;;;4996452;28;20805;-55
2021/01/22 12:54:34;;;;;;;6.20;1.52;;;;;;;;;;4995630;28;20368;-54
2021/01/22 12:57:00;;;;;;;11.80;2.15;;;;;;;;;;4993278;28;20131;-53
2021/01/22 12:59:25;;;;;;;8.23;1.63;;;;;;;;;;4994848;28;20037;-55
2021/01/22 13:01:51;;;;;;;7.82;1.83;;;;;;;;;;4995781;28;20050;-54
2021/01/22 13:04:17;;;;;;;9.40;1.73;;;;;;;;;;4994926;28;20030;-55
2021/01/22 13:06:43;;;;;;;6.50;1.33;;;;;;;;;;4995051;28;20454;-53
2021/01/22 13:09:09;;;;;;;10.32;1.60;;;;;;;;;;4978781;28;20066;-55
2021/01/22 13:11:35;;;;;;;10.75;1.15;;;;;;;;;;4994652;28;20488;-56
2021/01/22 13:14:01;;;;;;;9.23;1.50;;;;;;;;;;4979294;28;20053;-56
2021/01/22 13:16:26;;;;;;;12.60;1.70;;;;;;;;;;4993527;28;20054;-54
2021/01/22 13:18:52;;;;;;;8.38;1.58;;;;;;;;;;4996143;28;20042;-53
2021/01/22 13:21:18;;;;;;;9.25;1.40;;;;;;;;;;4993682;28;20038;-53
2021/01/22 13:23:44;;;;;;;11.13;1.10;;;;;;;;;;4995387;28;20534;-53
2021/01/22 13:26:11;;;;;;;5.45;1.25;;;;;;;;;;4993972;28;20443;-54
2021/01/22 13:28:37;;;;;;;5.13;1.10;;;;;;;;;;4993901;28;20044;-54
2021/01/22 13:31:04;;;;;;;10.15;2.03;;;;;;;;;;4993837;28;20041;-55
2021/01/22 13:33:30;;;;;;;6.85;1.02;;;;;;;;;;4992841;28;20556;-55
2021/01/22 13:35:56;;;;;;;12.07;1.42;;;;;;;;;;4993929;28;20057;-55
2021/01/22 13:38:22;;;;;;;12.68;1.30;;;;;;;;;;4993073;28;20034;-53
2021/01/22 13:40:48;;;;;;;9.27;1.52;;;;;;;;;;4991184;28;20046;-53
2021/01/22 13:43:15;;;;;;;8.98;1.45;;;;;;;;;;4993203;28;20457;-55
2021/01/22 13:45:40;;;;;;;6.90;1.58;;;;;;;;;;4993509;28;20030;-55
2021/01/22 13:48:06;;;;;;;10.27;1.73;;;;;;;;;;4994435;28;20081;-52
2021/01/22 13:50:32;;;;;;;7.45;1.52;;;;;;;;;;4994527;28;20103;-52
2021/01/22 13:52:59;;;;;;;11.45;1.65;;;;;;;;;;4993524;28;20542;-52
2021/01/22 13:55:24;;;;;;;10.45;1.08;;;;;;;;;;4993464;28;20503;-52
2021/01/22 13:57:50;;;;;;;6.32;1.60;;;;;;;;;;4993590;28;20093;-53
2021/01/22 14:00:16;;;;;;;7.55;1.00;;;;;;;;;;4992956;28;20038;-53
2021/01/22 14:02:42;;;;;;;14.65;1.27;;;;;;;;;;4991944;28;20038;-53
2021/01/22 14:05:08;;;;;;;6.50;1.30;;;;;;;;;;4994158;28;20045;-54
2021/01/22 14:07:34;;;;;;;6.13;1.02;;;;;;;;;;4991465;28;20057;-52
2021/01/22 14:10:00;;;;;;;7.30;1.10;;;;;;;;;;4993727;28;20061;-53
2021/01/22 14:12:26;;;;;;;7.35;0.82;;;;;;;;;;4993607;28;20058;-53
2021/01/22 14:14:52;;;;;;;3.67;0.95;;;;;;;;;;4996138;28;20045;-54
2021/01/22 14:17:18;;;;;;;4.88;1.05;;;;;;;;;;4992587;28;20038;-57
2021/01/22 14:19:44;;;;;;;7.10;1.15;;;;;;;;;;4992070;28;20196;-54
2021/01/22 14:22:10;;;;;;;6.15;0.85;;;;;;;;;;4993833;28;20042;-55
2021/01/22 14:24:35;;;;;;;6.10;1.60;;;;;;;;;;4989677;28;20042;-53
2021/01/22 14:27:01;;;;;;;6.10;0.95;;;;;;;;;;4990184;28;20499;-56
2021/01/22 14:29:27;;;;;;;8.93;1.20;;;;;;;;;;4992017;28;20034;-53
2021/01/22 14:31:53;;;;;;;19.02;1.60;;;;;;;;;;4992656;28;20080;-55
2021/01/22 14:34:19;;;;;;;4.03;0.65;;;;;;;;;;4992868;28;20057;-55
2021/01/22 14:36:45;;;;;;;3.13;0.65;;;;;;;;;;4991669;28;20515;-56
2021/01/22 14:39:11;;;;;;;8.55;1.23;;;;;;;;;;4992078;28;20038;-55